Station: Coonawarra  

  Atmospheric Gas Attenuation - ITU Rec 676-11   ----------------- dB/100km -----------------
Date Time Temp RH % AH g/m3 Dew Point Wind Direction Speed kph Gust kph Barometer mB Rainfall Since 9am 24GHz 47GHz 76GHz 122GHz 134GHz 241GHz
03/09 09:10 13.2 77 8.84 9.3 24 37 1014.9 0 20.1 26.5 41.2 108.0 102.5 352.8
03/09 09:00 13.2 80 9.19 9.8 20 30 1014.8 0 20.9 27.1 42.6 111.9 107.2 369.3
03/09 08:50 13.4 81 9.42 10.2 20 28 1014.6 1 21.4 27.4 43.4 114.1 110.1 379.3
03/09 08:40 13.1 84 9.59 10.5 20 32 1014.4 1 21.7 27.8 44.3 116.4 112.8 388.9
03/09 08:30 12.9 86 9.69 10.6 22 33 1014.1 1 22.0 28.0 44.8 117.8 114.5 394.7
03/09 08:20 12.9 91 10.26 11.5 19 26 1014 1 23.2 29.0 47.3 124.3 122.5 422.7
03/09 08:10 12.6 92 10.18 11.3 15 20 1013.9 1 23.0 28.9 47.1 123.9 121.8 420.3
03/09 08:00 12.5 92 10.12 11.2 17 20 1013.6 1 22.9 28.9 46.9 123.3 121.1 417.8
03/09 07:50 12.4 91 9.94 11 17 20 1013.4 1 22.5 28.6 46.1 121.4 118.7 409.3
03/09 07:40 12.3 91 9.88 10.9 15 20 1013.3 1 22.4 28.5 45.9 120.8 118.0 406.9
03/09 07:30 12.1 91 9.76 10.7 17 22 1013 1 22.2 28.3 45.5 119.7 116.6 401.9
03/09 07:20 11.9 92 9.74 10.6 13 19 1012.8 1 22.1 28.4 45.5 119.8 116.6 401.9
03/09 07:10 11.8 93 9.79 10.7 17 20 1012.5 1 22.2 28.5 45.8 120.5 117.4 404.8
03/09 07:00 11.6 95 9.88 10.8 15 22 1012.3 1 22.5 28.7 46.3 121.8 119.0 410.2
03/09 06:50 11.7 95 9.94 10.9 11 19 1012.2 1 22.6 28.8 46.5 122.3 119.7 412.7
03/09 06:40 11.7 95 9.94 10.9 13 20 1012.1 1 22.6 28.8 46.5 122.3 119.7 412.6
03/09 06:30 11.7 95 9.94 10.9 15 19 1011.9 1 22.6 28.7 46.5 122.3 119.7 412.6
03/09 06:20 11.8 95 10 11 17 22 1011.7 1 22.7 28.8 46.7 122.8 120.3 415.0
03/09 06:10 11.9 95 10.06 11.1 17 26 1011.7 1 22.8 28.9 46.9 123.3 121.0 417.4
03/09 06:00 11.9 95 10.06 11.1 22 32 1011.6 1 22.8 28.9 46.9 123.3 121.0 417.4
03/09 05:50 12 95 10.13 11.2 24 35 1011.5 1 23.0 29.0 47.1 124.0 121.9 420.3
03/09 05:40 12 95 10.13 11.2 24 37 1011.3 1 23.0 29.0 47.1 123.9 121.8 420.2
03/09 05:30 12.2 95 10.25 11.4 26 37 1011.3 1 23.2 29.1 47.5 125.0 123.2 425.1
03/09 05:20 12.1 94 10.08 11.2 20 26 1010.8 0.2 22.9 28.8 46.8 123.1 120.9 417.0
03/09 05:10 12.2 93 10.04 11.1 20 30 1010.5 0 22.8 28.7 46.5 122.5 120.2 414.4
03/09 05:00 12.1 93 9.97 11 19 24 1010.5 0 22.6 28.6 46.3 121.8 119.3 411.5
03/09 04:50 12.2 91 9.82 10.8 20 28 1010.4 0 22.3 28.3 45.6 119.9 117.0 403.5
03/09 04:40 12.2 91 9.82 10.8 19 26 1010.4 0 22.3 28.3 45.6 119.9 117.0 403.5
03/09 04:30 12.1 91 9.76 10.7 20 28 1010.4 0 22.2 28.2 45.4 119.4 116.3 401.1
03/09 04:20 12.1 90 9.65 10.5 20 28 1010.4 0 21.9 28.1 44.9 118.2 114.8 395.7
03/09 04:10 12.1 90 9.65 10.5 20 28 1010.4 0 21.9 28.1 44.9 118.2 114.8 395.7
03/09 04:00 12 91 9.7 10.6 22 30 1010.4 0 22.0 28.2 45.2 118.9 115.7 398.6
03/09 03:50 12 90 9.59 10.4 22 32 1010.4 0 21.8 28.0 44.7 117.6 114.1 393.2
03/09 03:40 12 90 9.59 10.4 20 28 1010.4 0 21.8 28.0 44.7 117.6 114.1 393.2
03/09 03:30 12 90 9.59 10.4 22 30 1010.5 0 21.8 28.0 44.7 117.6 114.1 393.3
03/09 03:20 11.9 90 9.53 10.3 20 30 1010.4 0 21.7 27.9 44.5 117.1 113.4 390.8
03/09 03:10 12 90 9.59 10.4 22 33 1010.4 0 21.8 28.0 44.7 117.6 114.1 393.2
03/09 03:00 11.9 90 9.53 10.3 24 32 1010.6 0 21.7 27.9 44.5 117.1 113.4 390.9
03/09 02:50 11.8 91 9.58 10.4 20 30 1010.6 0 21.8 28.0 44.8 117.8 114.3 393.8
03/09 02:40 11.6 92 9.56 10.3 19 30 1010.5 0 21.8 28.1 44.8 117.9 114.3 393.8
03/09 02:30 11.1 92 9.27 9.9 17 24 1010.7 0 21.2 27.7 43.9 115.4 111.0 382.1
03/09 02:20 11 91 9.11 9.6 17 24 1010.7 0 20.8 27.5 43.3 113.7 108.9 374.8
03/09 02:10 11 91 9.11 9.6 19 24 1010.9 0 20.8 27.5 43.3 113.7 108.9 374.9
03/09 02:00 10.9 91 9.05 9.5 17 24 1010.9 0 20.7 27.4 43.1 113.2 108.2 372.4
03/09 01:50 10.8 91 9 9.4 17 22 1010.9 0 20.6 27.4 42.9 112.8 107.6 370.4
03/09 01:40 10.7 91 8.94 9.3 17 24 1011 0 20.5 27.3 42.7 112.2 107.0 368.0
03/09 01:30 10.6 91 8.88 9.2 15 24 1011.2 0 20.4 27.2 42.5 111.7 106.3 365.6
03/09 01:20 10.4 92 8.87 9.2 17 20 1011.1 0 20.3 27.3 42.6 111.9 106.4 366.1
03/09 01:10 10.4 93 8.97 9.3 13 19 1011.2 0 20.6 27.5 43.0 113.0 107.8 371.0
03/09 01:00 10.6 93 9.08 9.5 15 24 1011.4 0 20.8 27.6 43.4 114.0 109.1 375.5
03/09 00:50 10.8 92 9.1 9.6 19 24 1011.4 0 20.8 27.6 43.4 114.0 109.1 375.5
03/09 00:40 10.8 91 9 9.4 19 24 1011.4 0 20.6 27.4 42.9 112.8 107.7 370.6
03/09 00:30 10.8 90 8.9 9.2 19 24 1011.5 0 20.4 27.2 42.5 111.7 106.3 365.8
03/09 00:20 10.7 91 8.94 9.3 20 28 1011.6 0 20.5 27.3 42.7 112.3 107.0 368.2
03/09 00:10 10.5 92 8.92 9.3 20 28 1011.7 0 20.4 27.4 42.8 112.4 107.0 368.2
03/09 00:00 10.4 93 8.97 9.3 20 30 1011.8 0 20.6 27.5 43.0 113.1 107.9 371.2
02/09 23:50 10.2 93 8.85 9.1 19 24 1011.8 0 20.3 27.3 42.6 112.0 106.5 366.2
02/09 23:40 9.8 93 8.63 8.7 17 22 1011.8 0 19.9 27.1 41.9 110.1 103.9 357.3
02/09 23:30 9.7 93 8.58 8.6 17 20 1011.9 0 19.7 27.0 41.8 109.7 103.4 355.4
02/09 23:20 9.7 92 8.48 8.5 17 20 1012 0 19.5 26.9 41.4 108.6 102.0 350.5
02/09 23:10 10 91 8.55 8.6 17 22 1012.1 0 19.7 26.9 41.5 109.0 102.6 352.6
02/09 23:00 10.2 91 8.66 8.8 17 22 1012.1 0 19.9 27.0 41.9 109.9 103.8 357.1
02/09 22:50 10.2 91 8.66 8.8 17 22 1012.1 0 19.9 27.0 41.9 109.9 103.8 357.1
02/09 22:40 10 91 8.55 8.6 19 24 1012.1 0 19.7 26.9 41.5 109.0 102.6 352.6
02/09 22:30 10.2 91 8.66 8.8 17 22 1012.2 0 19.9 27.0 41.9 109.9 103.8 357.1
02/09 22:20 10.2 92 8.76 9 17 20 1012.4 0 20.1 27.2 42.3 111.1 105.3 362.0
02/09 22:10 10.2 92 8.76 9 17 20 1012.5 0 20.1 27.2 42.3 111.1 105.3 362.0
02/09 22:00 10.2 92 8.76 9 13 17 1012.6 0 20.1 27.2 42.3 111.1 105.3 362.1
02/09 21:50 10.1 92 8.7 8.9 11 15 1012.7 0 20.0 27.1 42.1 110.6 104.6 359.6
02/09 21:40 10.2 93 8.85 9.1 13 17 1012.9 0 20.3 27.4 42.7 112.2 106.6 366.6
02/09 21:30 10.2 93 8.85 9.1 11 15 1013 0 20.3 27.4 42.7 112.2 106.6 366.6
02/09 21:20 10.1 93 8.8 9 11 13 1013 0 20.2 27.3 42.5 111.7 106.0 364.6
02/09 21:10 10.3 92 8.81 9.1 13 17 1013.2 0 20.2 27.3 42.5 111.6 105.9 364.2
02/09 21:00 10.3 92 8.81 9.1 15 19 1013.1 0 20.2 27.3 42.5 111.6 105.9 364.2
02/09 20:50 10.2 92 8.76 9 15 19 1013 0 20.1 27.2 42.3 111.1 105.3 362.2
02/09 20:40 10 92 8.65 8.8 15 20 1012.9 0 19.9 27.1 42.0 110.2 104.0 357.7
02/09 20:30 10.1 92 8.7 8.9 17 24 1013 0 20.0 27.2 42.1 110.6 104.6 359.7
02/09 20:20 10.1 93 8.8 9 19 26 1012.8 0 20.2 27.3 42.5 111.7 106.0 364.6
02/09 20:10 10.2 93 8.85 9.1 17 26 1012.8 0 20.3 27.4 42.7 112.1 106.6 366.5
02/09 20:00 10.3 94 9 9.4 17 24 1012.8 0 20.6 27.6 43.3 113.7 108.5 373.4
02/09 19:50 10.3 94 9 9.4 15 20 1012.8 0 20.6 27.6 43.3 113.7 108.5 373.4
02/09 19:40 10.2 94 8.95 9.3 17 24 1012.8 0 20.5 27.5 43.1 113.3 108.0 371.4
02/09 19:30 10.3 94 9 9.4 20 28 1012.8 0 20.6 27.6 43.3 113.7 108.5 373.4
02/09 19:20 10.5 93 9.02 9.4 20 28 1012.8 0 20.7 27.6 43.3 113.6 108.5 373.4
02/09 19:10 10.6 92 8.98 9.4 20 32 1012.8 0 20.6 27.5 43.0 113.0 107.8 371.0
02/09 19:00 10.7 91 8.94 9.3 22 28 1012.8 0 20.5 27.4 42.8 112.4 107.1 368.6
02/09 18:50 10.9 90 8.95 9.3 20 30 1012.7 0 20.5 27.3 42.7 112.3 107.0 368.1
02/09 18:40 10.8 92 9.1 9.6 15 20 1012.7 0 20.8 27.6 43.4 114.1 109.2 375.9
02/09 18:30 10.8 93 9.19 9.7 13 19 1012.7 0 21.0 27.8 43.8 115.1 110.5 380.3
02/09 18:20 10.8 94 9.29 9.9 13 20 1012.8 0 21.2 27.9 44.2 116.3 111.9 385.3
02/09 18:10 10.9 93 9.25 9.8 17 24 1012.8 0 21.1 27.8 44.0 115.7 111.2 382.8
02/09 18:00 11.1 91 9.17 9.7 22 33 1012.9 0 20.9 27.6 43.6 114.5 109.8 377.9
02/09 17:50 11.7 85 8.89 9.3 19 26 1012.8 0 20.3 27.0 42.1 110.5 105.0 361.4
02/09 17:40 11.8 84 8.84 9.2 19 28 1012.6 0 20.2 26.9 41.8 109.7 104.2 358.5
02/09 17:30 12.2 80 8.63 8.9 20 32 1012.6 0 19.7 26.4 40.7 106.9 100.8 346.7
02/09 17:20 12.5 77 8.47 8.6 19 28 1012.5 0 19.4 26.0 39.9 104.7 98.3 337.8
02/09 17:10 12.5 77 8.47 8.6 17 22 1012.4 0 19.4 26.0 39.9 104.7 98.3 337.8
02/09 17:00 12.6 75 8.3 8.3 19 26 1012.4 0 19.0 25.7 39.1 102.7 95.9 329.5
02/09 16:50 13 71 8.05 7.9 20 30 1012.3 0 18.5 25.2 37.9 99.5 92.1 316.3
02/09 16:40 13.1 73 8.33 8.4 22 30 1012.4 0 19.0 25.6 39.0 102.4 95.6 328.8

Last Refresh: 03-Sep-2026 09:23:26

Bureau of Meteorology